createdAt,value
2018-02-04T00:04:02.933Z,1.1
2018-02-04T00:09:02.421Z,1.1
2018-02-04T00:14:03.092Z,1.1
2018-02-04T00:19:02.449Z,1.1
2018-02-04T00:24:02.475Z,1.1
2018-02-04T00:29:02.443Z,1.1
2018-02-04T00:34:02.446Z,1
2018-02-04T00:39:02.600Z,1
2018-02-04T00:44:02.445Z,1.1
2018-02-04T00:49:02.673Z,1.1
2018-02-04T00:54:02.568Z,1.1
2018-02-04T00:59:02.453Z,1.1
2018-02-04T01:04:02.667Z,1.1
2018-02-04T01:09:02.470Z,1.1
2018-02-04T01:14:02.464Z,1.1
2018-02-04T01:19:02.457Z,1.2
2018-02-04T01:24:02.471Z,1.1
2018-02-04T01:29:02.623Z,1.1
2018-02-04T01:34:02.499Z,1.1
2018-02-04T01:39:02.554Z,1.1
2018-02-04T01:44:06.632Z,1.1
2018-02-04T01:49:11.721Z,1.1
2018-02-04T01:54:06.595Z,1.1
2018-02-04T01:59:06.819Z,1.1
2018-02-04T02:04:06.606Z,1.1
2018-02-04T02:09:06.788Z,1.1
2018-02-04T02:14:06.654Z,1.1
2018-02-04T02:19:06.878Z,1.2
2018-02-04T02:24:06.764Z,1.1
2018-02-04T02:29:06.829Z,1.2
2018-02-04T02:34:06.867Z,1.2
2018-02-04T02:39:06.662Z,1.2
2018-02-04T02:44:06.664Z,1.2
2018-02-04T02:49:06.860Z,1.2
2018-02-04T02:54:06.900Z,1.2
2018-02-04T02:59:06.926Z,1.2
2018-02-04T03:04:06.837Z,1.2
2018-02-04T03:09:06.661Z,1.2
2018-02-04T03:14:06.711Z,1.2
2018-02-04T03:19:06.703Z,1.2
2018-02-04T03:24:06.884Z,1.2
2018-02-04T03:29:06.826Z,1.1
2018-02-04T03:34:06.739Z,1.2
2018-02-04T03:39:06.724Z,1.2
2018-02-04T03:44:06.742Z,1.2
2018-02-04T03:49:06.849Z,1.2
2018-02-04T03:54:06.888Z,1.2
2018-02-04T03:59:06.747Z,1.2
2018-02-04T04:04:06.761Z,1.2
2018-02-04T04:09:06.876Z,1.2
2018-02-04T04:14:06.817Z,1.2
2018-02-04T04:19:06.814Z,1.2
2018-02-04T04:24:06.821Z,1.2
2018-02-04T04:29:07.023Z,1.2
2018-02-04T04:34:06.838Z,1.1
2018-02-04T04:39:06.975Z,1.1
2018-02-04T04:44:07.022Z,1
2018-02-04T04:49:06.831Z,0.9
2018-02-04T04:54:06.836Z,0.9
2018-02-04T04:59:06.865Z,0.8
2018-02-04T05:04:06.895Z,0.8
2018-02-04T05:09:06.903Z,0.8
2018-02-04T05:14:06.906Z,0.7
2018-02-04T05:19:07.044Z,0.6
2018-02-04T05:24:06.886Z,0.6
2018-02-04T05:29:07.117Z,0.4
2018-02-04T05:34:06.867Z,0.3
2018-02-04T05:39:07.091Z,0.3
2018-02-04T05:44:07.026Z,0.3
2018-02-04T05:49:06.877Z,0.1
2018-02-04T05:54:06.905Z,0.2
2018-02-04T05:59:07.115Z,0.1
2018-02-04T06:04:06.920Z,0.1
2018-02-04T06:09:06.934Z,0.1
2018-02-04T06:14:07.122Z,0.2
2018-02-04T06:19:07.150Z,0.2
2018-02-04T06:24:06.972Z,0.2
2018-02-04T06:29:06.967Z,0.2
2018-02-04T06:34:06.968Z,0.2
2018-02-04T06:39:09.419Z,0.2
2018-02-04T06:44:14.511Z,0.3
2018-02-04T06:49:09.370Z,0.3
2018-02-04T06:54:09.643Z,0.4
2018-02-04T06:59:09.563Z,0.4
2018-02-04T07:04:09.491Z,0.4
2018-02-04T07:09:09.643Z,0.5
2018-02-04T07:14:09.542Z,0.6
2018-02-04T07:19:09.440Z,0.6
2018-02-04T07:24:09.449Z,0.7
2018-02-04T07:29:09.471Z,0.8
2018-02-04T07:34:09.450Z,0.8
2018-02-04T07:39:09.639Z,1.2
2018-02-04T07:44:09.395Z,2.5
2018-02-04T07:49:09.454Z,1.5
2018-02-04T07:54:09.452Z,1.3
2018-02-04T07:59:09.461Z,1.3
2018-02-04T08:04:09.476Z,1.4
2018-02-04T08:09:09.645Z,1.5
2018-02-04T08:14:09.517Z,1.5
2018-02-04T08:19:09.514Z,1.6
2018-02-04T08:24:09.757Z,1.7
2018-02-04T08:29:09.478Z,1.8
2018-02-04T08:34:09.624Z,1.9
2018-02-04T08:39:09.495Z,2.1
2018-02-04T08:44:09.743Z,2.3
2018-02-04T08:49:09.717Z,2.4
2018-02-04T08:54:09.759Z,2.4
2018-02-04T08:59:09.703Z,2.6
2018-02-04T09:04:09.748Z,2.6
2018-02-04T09:09:09.764Z,2.6
2018-02-04T09:14:09.749Z,2.6
2018-02-04T09:19:09.815Z,2.6
2018-02-04T09:24:09.770Z,2.4
2018-02-04T09:29:09.797Z,2.5
2018-02-04T09:34:09.780Z,2.5
2018-02-04T09:39:09.787Z,2.8
2018-02-04T09:44:09.780Z,3.2
2018-02-04T09:49:09.790Z,3.4
2018-02-04T09:54:09.779Z,3.6
2018-02-04T09:59:09.787Z,3.4
2018-02-04T10:04:09.795Z,3.2
2018-02-04T10:09:09.794Z,3.2
2018-02-04T10:14:09.801Z,2.8
2018-02-04T10:19:09.769Z,2.7
2018-02-04T10:24:09.811Z,2.7
2018-02-04T10:29:09.798Z,2.6
2018-02-04T10:34:09.809Z,2.7
2018-02-04T10:39:10.297Z,2.9
2018-02-04T10:44:09.800Z,3.1
2018-02-04T10:49:09.794Z,3.4
2018-02-04T10:54:09.821Z,3.7
2018-02-04T10:59:09.801Z,3.5
2018-02-04T11:04:09.845Z,3.5
2018-02-04T11:09:09.821Z,3.6
2018-02-04T11:14:09.821Z,3.8
2018-02-04T11:19:09.818Z,3.9
2018-02-04T11:24:09.813Z,3.7
2018-02-04T11:29:09.840Z,3.7
2018-02-04T11:34:09.853Z,3.6
2018-02-04T11:39:14.448Z,3.5
2018-02-04T11:44:19.548Z,3.6
2018-02-04T11:49:14.292Z,3.4
2018-02-04T11:54:14.355Z,3.6
2018-02-04T11:59:14.181Z,3.6
2018-02-04T12:04:14.170Z,3.5
2018-02-04T12:09:14.500Z,3.5
2018-02-04T12:14:14.585Z,3.6
2018-02-04T12:19:14.511Z,3.6
2018-02-04T12:24:14.432Z,3.5
2018-02-04T12:29:14.373Z,3.4
2018-02-04T12:34:14.377Z,3.5
2018-02-04T12:39:14.481Z,3.4
2018-02-04T12:44:14.432Z,3.6
2018-02-04T12:49:14.519Z,3.8
2018-02-04T12:54:14.443Z,3.9
2018-02-04T12:59:14.458Z,3.8
2018-02-04T13:04:14.382Z,3.7
2018-02-04T13:09:14.398Z,3.7
2018-02-04T13:14:14.418Z,4
2018-02-04T13:19:14.525Z,4.2
2018-02-04T13:24:14.418Z,4.2
2018-02-04T13:29:14.416Z,4.1
2018-02-04T13:34:14.466Z,4.1
2018-02-04T13:39:14.447Z,4.1
2018-02-04T13:44:15.772Z,4
2018-02-04T13:49:14.579Z,4
2018-02-04T13:54:14.383Z,4
2018-02-04T13:59:14.446Z,4
2018-02-04T14:04:14.433Z,4.2
2018-02-04T14:09:14.949Z,4.1
2018-02-04T14:14:14.421Z,3.8
2018-02-04T14:19:15.402Z,3.5
2018-02-04T14:24:14.465Z,3.6
2018-02-04T14:29:14.460Z,3.8
2018-02-04T14:34:14.479Z,3.8
2018-02-04T14:39:14.583Z,3.8
2018-02-04T14:44:14.683Z,3.9
2018-02-04T14:49:14.819Z,3.7
2018-02-04T14:54:14.693Z,3.7
2018-02-04T14:59:14.586Z,3.6
2018-02-04T15:04:14.866Z,3.4
2018-02-04T15:09:14.608Z,3.4
2018-02-04T15:14:14.538Z,3.3
2018-02-04T15:19:14.597Z,3.2
2018-02-04T15:24:14.610Z,3.1
2018-02-04T15:29:14.565Z,3
2018-02-04T15:34:14.811Z,2.9
2018-02-04T15:39:14.601Z,2.9
2018-02-04T15:44:14.625Z,2.8
2018-02-04T15:49:14.547Z,2.7
2018-02-04T15:54:14.595Z,2.6
2018-02-04T15:59:15.377Z,2.5
2018-02-04T16:04:15.964Z,2.4
2018-02-04T16:09:15.400Z,2.2
2018-02-04T16:14:15.566Z,2.1
2018-02-04T16:19:15.272Z,2
2018-02-04T16:24:15.836Z,1.9
2018-02-04T16:29:19.740Z,1.8
2018-02-04T16:34:14.655Z,1.7
2018-02-04T16:39:14.648Z,1.5
2018-02-04T16:44:14.778Z,1.4
2018-02-04T16:49:14.920Z,1.3
2018-02-04T16:54:14.777Z,1.2
2018-02-04T16:59:14.717Z,1
2018-02-04T17:04:14.906Z,1
2018-02-04T17:09:14.783Z,0.9
2018-02-04T17:14:14.984Z,0.7
2018-02-04T17:19:14.791Z,0.7
2018-02-04T17:24:14.780Z,0.7
2018-02-04T17:29:14.867Z,0.6
2018-02-04T17:34:15.048Z,0.5
2018-02-04T17:39:14.977Z,0.5
2018-02-04T17:44:15.201Z,0.4
2018-02-04T17:49:14.991Z,0.3
2018-02-04T17:54:15.137Z,0.4
2018-02-04T17:59:14.981Z,0.3
2018-02-04T18:04:14.998Z,0.2
2018-02-04T18:09:15.028Z,0.1
2018-02-04T18:14:15.046Z,0.1
2018-02-04T18:19:14.964Z,0
2018-02-04T18:24:14.962Z,0
2018-02-04T18:29:15.017Z,-0.1
2018-02-04T18:34:15.026Z,0
2018-02-04T18:39:15.139Z,-0.1
2018-02-04T18:44:15.025Z,-0.1
2018-02-04T18:49:15.030Z,-0.3
2018-02-04T18:54:15.163Z,-0.3
2018-02-04T18:59:15.030Z,-0.4
2018-02-04T19:04:15.061Z,-0.4
2018-02-04T19:09:15.151Z,-0.5
2018-02-04T19:14:14.974Z,-0.5
2018-02-04T19:19:15.046Z,-0.6
2018-02-04T19:24:15.057Z,-0.7
2018-02-04T19:29:15.037Z,-0.7
2018-02-04T19:34:15.067Z,-0.8
2018-02-04T19:39:15.079Z,-0.8
2018-02-04T19:44:15.075Z,-0.8
2018-02-04T19:49:15.076Z,-0.9
2018-02-04T19:54:15.055Z,-0.9
2018-02-04T19:59:15.310Z,-1
2018-02-04T20:04:15.215Z,-1
2018-02-04T20:09:15.078Z,-1
2018-02-04T20:14:15.189Z,-1.1
2018-02-04T20:19:15.217Z,-1.2
2018-02-04T20:24:15.113Z,-1.3
2018-02-04T20:29:15.312Z,-1.3
2018-02-04T20:34:15.333Z,-1.3
2018-02-04T20:39:15.233Z,-1.3
2018-02-04T20:44:15.112Z,-1.4
2018-02-04T20:49:15.234Z,-1.5
2018-02-04T20:54:15.258Z,-1.5
2018-02-04T20:59:15.294Z,-1.6
2018-02-04T21:04:15.119Z,-1.6
2018-02-04T21:09:15.144Z,-1.6
2018-02-04T21:14:15.176Z,-1.7
2018-02-04T21:19:15.094Z,-1.6
2018-02-04T21:24:19.267Z,-1.7
2018-02-04T21:29:24.690Z,-1.8
2018-02-04T21:34:19.498Z,-1.8
2018-02-04T21:39:19.624Z,-1.9
2018-02-04T21:44:19.512Z,-1.9
2018-02-04T21:49:19.560Z,-1.9
2018-02-04T21:54:19.546Z,-2
2018-02-04T21:59:19.564Z,-2.1
2018-02-04T22:04:19.577Z,-2.1
2018-02-04T22:09:19.559Z,-2.1
2018-02-04T22:14:19.571Z,-2.2
2018-02-04T22:19:19.592Z,-2.2
2018-02-04T22:24:19.752Z,-2.2
2018-02-04T22:29:19.525Z,-2.5
2018-02-04T22:34:19.584Z,-2.4
2018-02-04T22:39:19.584Z,-2.4
2018-02-04T22:44:19.576Z,-2.3
2018-02-04T22:49:19.578Z,-2.3
2018-02-04T22:54:19.596Z,-2.4
2018-02-04T22:59:19.761Z,-2.4
2018-02-04T23:04:19.826Z,-2.4
2018-02-04T23:09:19.597Z,-2.5
2018-02-04T23:14:19.599Z,-2.5
2018-02-04T23:19:19.612Z,-2.5
2018-02-04T23:24:19.556Z,-2.6
2018-02-04T23:29:19.615Z,-2.6
2018-02-04T23:34:19.641Z,-2.6
2018-02-04T23:39:19.565Z,-2.6
2018-02-04T23:44:19.620Z,-2.6
2018-02-04T23:49:19.615Z,-2.7
2018-02-04T23:54:19.844Z,-2.7
2018-02-04T23:59:19.643Z,-2.8
